Surat Airport
VASU : now visible

Airfield :











YOU CAN JOIN US ON...

 
LOGIN :

Register | Disclaimer

   EN    FR    IT 

 









Legend :    VFR   Marginal VFR   IFR   Intensive IFR   Very Intensive IFR
Visi :
Ceiling :
>= 8 km
>= 3000ft
5 to 8 km
1000 to 3000 ft
1500m to 5 km
500 to 1000 ft
800 to 1500m
200 to 500 ft
< 800m
< 200 ft
Symbols :   Thunderstorms  Fog  Heavy snow  Heavy precipitations  Wind > 20 kt






- Airport Elevation : 16 ft
- IATA code : STV


VASU - Surat

CURRENT METAR :
  • 251000Z 07005KT 4000 SCT080 31/12 Q1012 NOSIG

EXPIRED METARs :
  • 250930Z 07004KT 4000 HZ SCT080 33/14 Q1013 NOSIG
  • 250900Z 03005KT 3000 HZ SCT080 32/14 Q1013 NOSIG
  • 250830Z 03005KT 3000 HZ BKN080 30/14 Q1013 NOSIG
  • 250800Z 03005KT 3000 HZ BKN080 28/14 Q1014 NOSIG
  • 250730Z 03006KT 3000 HZ BKN080 28/14 Q1015 NOSIG

TAF TAF VASU
Valid from the 25 at 09:00 until the 25 at 18:00 UTC


250800Z 2509/2518 34006KT 4000 FU BKN080
BECMG 2512/2514 36006KT HZ SCT080



MET'MAP, your aeronautical weather chart ! - Copyright ORBIFLY December 2007 - Disclaimer

ORBIFLY MET'MAP TEAM :

Programming & Development : Alexandra Zaïnal
Concept & original design : Baudouin d'Aumeries
Assistance for programming : Marc-Olivier Méhu
Technical & hardware support : Manuel Goepfert

Contact : metmap@orbifly.com




SOURCES & CREDITS :

   NOAA       Earth
Advisory